sensor_id;sensor_type;location;lat;lon;timestamp;P1;durP1;ratioP1;P2;durP2;ratioP2
11921;SDS011;6021;51.182;3.160;2022-07-01T00:01:46;9.30;;;6.20;;
11921;SDS011;6021;51.182;3.160;2022-07-01T00:04:33;7.03;;;5.93;;
11921;SDS011;6021;51.182;3.160;2022-07-01T00:07:18;6.87;;;5.70;;
11921;SDS011;6021;51.182;3.160;2022-07-01T00:09:50;7.20;;;5.83;;
11921;SDS011;6021;51.182;3.160;2022-07-01T00:12:25;5.73;;;5.17;;
11921;SDS011;6021;51.182;3.160;2022-07-01T00:14:58;7.30;;;5.83;;
11921;SDS011;6021;51.182;3.160;2022-07-01T00:17:33;5.53;;;5.00;;
11921;SDS011;6021;51.182;3.160;2022-07-01T00:20:07;7.00;;;4.70;;
11921;SDS011;6021;51.182;3.160;2022-07-01T00:22:43;6.20;;;5.40;;
11921;SDS011;6021;51.182;3.160;2022-07-01T00:25:18;4.90;;;4.43;;
11921;SDS011;6021;51.182;3.160;2022-07-01T00:27:56;5.97;;;4.70;;
11921;SDS011;6021;51.182;3.160;2022-07-01T00:30:32;6.20;;;4.63;;
11921;SDS011;6021;51.182;3.160;2022-07-01T00:33:08;10.47;;;5.50;;
11921;SDS011;6021;51.182;3.160;2022-07-01T00:35:41;6.17;;;4.97;;
11921;SDS011;6021;51.182;3.160;2022-07-01T00:38:12;8.90;;;4.60;;
11921;SDS011;6021;51.182;3.160;2022-07-01T00:40:56;5.30;;;4.80;;
11921;SDS011;6021;51.182;3.160;2022-07-01T00:43:36;6.73;;;4.87;;
11921;SDS011;6021;51.182;3.160;2022-07-01T00:46:10;6.97;;;4.70;;
11921;SDS011;6021;51.182;3.160;2022-07-01T00:48:49;7.67;;;4.97;;
11921;SDS011;6021;51.182;3.160;2022-07-01T00:51:31;9.37;;;4.90;;
11921;SDS011;6021;51.182;3.160;2022-07-01T00:54:07;7.70;;;4.90;;
11921;SDS011;6021;51.182;3.160;2022-07-01T00:56:59;6.17;;;4.67;;
11921;SDS011;6021;51.182;3.160;2022-07-01T00:59:33;6.50;;;4.80;;
11921;SDS011;6021;51.182;3.160;2022-07-01T01:02:07;7.40;;;4.83;;
11921;SDS011;6021;51.182;3.160;2022-07-01T01:04:39;6.23;;;5.40;;
11921;SDS011;6021;51.182;3.160;2022-07-01T01:07:12;7.07;;;4.87;;
11921;SDS011;6021;51.182;3.160;2022-07-01T01:09:49;6.20;;;5.03;;
11921;SDS011;6021;51.182;3.160;2022-07-01T01:12:24;8.67;;;5.70;;
11921;SDS011;6021;51.182;3.160;2022-07-01T01:15:03;12.13;;;5.67;;
11921;SDS011;6021;51.182;3.160;2022-07-01T01:17:33;8.50;;;5.27;;
11921;SDS011;6021;51.182;3.160;2022-07-01T01:20:08;6.40;;;4.73;;
11921;SDS011;6021;51.182;3.160;2022-07-01T01:22:49;6.57;;;5.27;;
11921;SDS011;6021;51.182;3.160;2022-07-01T01:25:28;7.60;;;5.50;;
11921;SDS011;6021;51.182;3.160;2022-07-01T01:28:01;7.33;;;5.40;;
11921;SDS011;6021;51.182;3.160;2022-07-01T01:30:34;7.70;;;5.10;;
11921;SDS011;6021;51.182;3.160;2022-07-01T01:33:10;6.47;;;4.80;;
11921;SDS011;6021;51.182;3.160;2022-07-01T01:35:47;6.73;;;4.93;;
11921;SDS011;6021;51.182;3.160;2022-07-01T01:38:25;10.67;;;5.20;;
11921;SDS011;6021;51.182;3.160;2022-07-01T01:41:04;5.83;;;4.93;;
11921;SDS011;6021;51.182;3.160;2022-07-01T01:43:44;8.17;;;5.30;;
11921;SDS011;6021;51.182;3.160;2022-07-01T01:46:19;9.73;;;5.63;;
11921;SDS011;6021;51.182;3.160;2022-07-01T01:48:57;10.77;;;5.63;;
11921;SDS011;6021;51.182;3.160;2022-07-01T01:51:35;11.00;;;5.50;;
11921;SDS011;6021;51.182;3.160;2022-07-01T01:54:10;10.60;;;5.37;;
11921;SDS011;6021;51.182;3.160;2022-07-01T01:57:00;9.60;;;5.40;;
11921;SDS011;6021;51.182;3.160;2022-07-01T01:59:41;8.47;;;5.00;;
11921;SDS011;6021;51.182;3.160;2022-07-01T02:02:26;7.17;;;4.63;;
11921;SDS011;6021;51.182;3.160;2022-07-01T02:04:58;8.23;;;5.30;;
11921;SDS011;6021;51.182;3.160;2022-07-01T02:07:36;10.77;;;5.67;;
11921;SDS011;6021;51.182;3.160;2022-07-01T02:10:28;9.43;;;4.90;;
11921;SDS011;6021;51.182;3.160;2022-07-01T02:13:30;7.87;;;4.90;;
11921;SDS011;6021;51.182;3.160;2022-07-01T02:16:10;6.03;;;5.00;;
11921;SDS011;6021;51.182;3.160;2022-07-01T02:18:57;6.37;;;4.60;;
11921;SDS011;6021;51.182;3.160;2022-07-01T02:21:39;8.23;;;4.93;;
11921;SDS011;6021;51.182;3.160;2022-07-01T02:24:19;7.07;;;4.57;;
11921;SDS011;6021;51.182;3.160;2022-07-01T02:26:57;6.10;;;4.10;;
11921;SDS011;6021;51.182;3.160;2022-07-01T02:29:35;5.27;;;4.30;;
11921;SDS011;6021;51.182;3.160;2022-07-01T02:32:13;10.70;;;5.07;;
11921;SDS011;6021;51.182;3.160;2022-07-01T02:34:59;8.67;;;4.77;;
11921;SDS011;6021;51.182;3.160;2022-07-01T02:37:41;11.10;;;4.73;;
11921;SDS011;6021;51.182;3.160;2022-07-01T02:40:33;8.27;;;4.23;;
11921;SDS011;6021;51.182;3.160;2022-07-01T02:43:14;5.97;;;4.27;;
11921;SDS011;6021;51.182;3.160;2022-07-01T02:45:51;6.60;;;4.37;;
11921;SDS011;6021;51.182;3.160;2022-07-01T02:48:40;11.73;;;4.70;;
11921;SDS011;6021;51.182;3.160;2022-07-01T02:51:18;8.37;;;4.50;;
11921;SDS011;6021;51.182;3.160;2022-07-01T02:53:56;8.70;;;4.37;;
11921;SDS011;6021;51.182;3.160;2022-07-01T02:56:30;4.77;;;4.00;;
11921;SDS011;6021;51.182;3.160;2022-07-01T02:59:14;5.83;;;4.30;;
11921;SDS011;6021;51.182;3.160;2022-07-01T03:02:03;9.77;;;4.10;;
11921;SDS011;6021;51.182;3.160;2022-07-01T03:04:39;5.77;;;3.80;;
11921;SDS011;6021;51.182;3.160;2022-07-01T03:07:16;8.03;;;3.67;;
11921;SDS011;6021;51.182;3.160;2022-07-01T03:09:55;7.10;;;3.90;;
11921;SDS011;6021;51.182;3.160;2022-07-01T03:12:31;7.40;;;3.67;;
11921;SDS011;6021;51.182;3.160;2022-07-01T03:15:07;6.33;;;3.90;;
11921;SDS011;6021;51.182;3.160;2022-07-01T03:17:48;5.33;;;3.80;;
11921;SDS011;6021;51.182;3.160;2022-07-01T03:20:31;8.50;;;3.90;;
11921;SDS011;6021;51.182;3.160;2022-07-01T03:23:09;9.23;;;4.03;;
11921;SDS011;6021;51.182;3.160;2022-07-01T03:25:42;7.17;;;3.97;;
11921;SDS011;6021;51.182;3.160;2022-07-01T03:28:27;6.93;;;3.70;;
11921;SDS011;6021;51.182;3.160;2022-07-01T03:31:16;9.80;;;4.20;;
11921;SDS011;6021;51.182;3.160;2022-07-01T03:33:53;6.77;;;4.07;;
11921;SDS011;6021;51.182;3.160;2022-07-01T03:36:41;7.67;;;4.30;;
11921;SDS011;6021;51.182;3.160;2022-07-01T03:39:44;8.13;;;4.20;;
11921;SDS011;6021;51.182;3.160;2022-07-01T03:42:22;7.07;;;4.10;;
11921;SDS011;6021;51.182;3.160;2022-07-01T03:45:07;8.17;;;4.33;;
11921;SDS011;6021;51.182;3.160;2022-07-01T03:47:51;8.37;;;4.07;;
11921;SDS011;6021;51.182;3.160;2022-07-01T03:50:35;8.43;;;4.73;;
11921;SDS011;6021;51.182;3.160;2022-07-01T03:53:11;9.23;;;5.57;;
11921;SDS011;6021;51.182;3.160;2022-07-01T03:56:14;7.77;;;4.80;;
11921;SDS011;6021;51.182;3.160;2022-07-01T03:59:03;7.40;;;4.37;;
11921;SDS011;6021;51.182;3.160;2022-07-01T04:01:46;7.77;;;4.73;;
11921;SDS011;6021;51.182;3.160;2022-07-01T04:08:05;10.43;;;6.90;;
11921;SDS011;6021;51.182;3.160;2022-07-01T04:10:55;9.47;;;6.23;;
11921;SDS011;6021;51.182;3.160;2022-07-01T04:13:40;8.73;;;5.90;;
11921;SDS011;6021;51.182;3.160;2022-07-01T04:16:33;10.00;;;5.90;;
11921;SDS011;6021;51.182;3.160;2022-07-01T04:19:19;10.67;;;6.30;;
11921;SDS011;6021;51.182;3.160;2022-07-01T04:22:10;9.57;;;5.30;;
11921;SDS011;6021;51.182;3.160;2022-07-01T04:25:14;9.43;;;4.20;;
11921;SDS011;6021;51.182;3.160;2022-07-01T04:28:08;9.97;;;5.33;;
11921;SDS011;6021;51.182;3.160;2022-07-01T04:30:49;6.57;;;4.27;;
11921;SDS011;6021;51.182;3.160;2022-07-01T04:33:50;4.77;;;4.30;;
11921;SDS011;6021;51.182;3.160;2022-07-01T04:36:40;8.60;;;4.60;;
11921;SDS011;6021;51.182;3.160;2022-07-01T04:39:33;8.83;;;4.53;;
11921;SDS011;6021;51.182;3.160;2022-07-01T04:42:26;9.77;;;4.30;;
11921;SDS011;6021;51.182;3.160;2022-07-01T04:45:24;8.83;;;4.00;;
11921;SDS011;6021;51.182;3.160;2022-07-01T04:48:00;7.87;;;4.17;;
11921;SDS011;6021;51.182;3.160;2022-07-01T04:50:41;7.87;;;4.20;;
11921;SDS011;6021;51.182;3.160;2022-07-01T04:53:46;7.23;;;4.00;;
11921;SDS011;6021;51.182;3.160;2022-07-01T04:56:41;7.80;;;4.10;;
11921;SDS011;6021;51.182;3.160;2022-07-01T04:59:56;7.80;;;4.50;;
11921;SDS011;6021;51.182;3.160;2022-07-01T05:02:47;7.70;;;3.97;;
11921;SDS011;6021;51.182;3.160;2022-07-01T05:05:46;5.77;;;3.77;;
11921;SDS011;6021;51.182;3.160;2022-07-01T05:08:34;8.53;;;4.37;;
11921;SDS011;6021;51.182;3.160;2022-07-01T05:11:17;8.50;;;4.17;;
11921;SDS011;6021;51.182;3.160;2022-07-01T05:14:16;7.47;;;3.93;;
11921;SDS011;6021;51.182;3.160;2022-07-01T05:16:57;6.27;;;4.40;;
11921;SDS011;6021;51.182;3.160;2022-07-01T05:20:04;10.97;;;4.73;;
11921;SDS011;6021;51.182;3.160;2022-07-01T05:23:01;6.80;;;3.93;;
11921;SDS011;6021;51.182;3.160;2022-07-01T05:25:42;10.10;;;4.07;;
11921;SDS011;6021;51.182;3.160;2022-07-01T05:28:47;7.17;;;4.20;;
11921;SDS011;6021;51.182;3.160;2022-07-01T05:31:23;9.83;;;3.60;;
11921;SDS011;6021;51.182;3.160;2022-07-01T05:34:08;6.33;;;3.90;;
11921;SDS011;6021;51.182;3.160;2022-07-01T05:36:46;5.37;;;3.90;;
11921;SDS011;6021;51.182;3.160;2022-07-01T05:39:42;6.40;;;3.93;;
11921;SDS011;6021;51.182;3.160;2022-07-01T05:42:32;5.00;;;3.40;;
11921;SDS011;6021;51.182;3.160;2022-07-01T05:48:26;7.67;;;3.37;;
11921;SDS011;6021;51.182;3.160;2022-07-01T05:51:03;5.93;;;3.17;;
11921;SDS011;6021;51.182;3.160;2022-07-01T05:53:38;6.03;;;3.33;;
11921;SDS011;6021;51.182;3.160;2022-07-01T05:56:36;6.67;;;3.70;;
11921;SDS011;6021;51.182;3.160;2022-07-01T05:59:17;6.40;;;3.10;;
11921;SDS011;6021;51.182;3.160;2022-07-01T06:01:52;4.57;;;3.40;;
11921;SDS011;6021;51.182;3.160;2022-07-01T06:04:34;7.10;;;3.60;;
11921;SDS011;6021;51.182;3.160;2022-07-01T06:07:19;8.17;;;3.93;;
11921;SDS011;6021;51.182;3.160;2022-07-01T06:09:55;5.07;;;3.40;;
11921;SDS011;6021;51.182;3.160;2022-07-01T06:12:26;6.00;;;3.20;;
11921;SDS011;6021;51.182;3.160;2022-07-01T06:15:06;7.17;;;3.43;;
11921;SDS011;6021;51.182;3.160;2022-07-01T06:17:39;7.00;;;3.40;;
11921;SDS011;6021;51.182;3.160;2022-07-01T06:20:10;7.53;;;3.30;;
11921;SDS011;6021;51.182;3.160;2022-07-01T06:22:47;8.87;;;3.80;;
11921;SDS011;6021;51.182;3.160;2022-07-01T06:25:20;5.97;;;3.50;;
11921;SDS011;6021;51.182;3.160;2022-07-01T06:28:02;5.83;;;3.30;;
11921;SDS011;6021;51.182;3.160;2022-07-01T06:30:38;7.60;;;3.17;;
11921;SDS011;6021;51.182;3.160;2022-07-01T06:33:17;4.97;;;3.03;;
11921;SDS011;6021;51.182;3.160;2022-07-01T06:35:47;8.17;;;3.40;;
11921;SDS011;6021;51.182;3.160;2022-07-01T06:38:33;3.23;;;2.93;;
11921;SDS011;6021;51.182;3.160;2022-07-01T06:41:15;8.33;;;3.27;;
11921;SDS011;6021;51.182;3.160;2022-07-01T06:43:56;7.23;;;3.00;;
11921;SDS011;6021;51.182;3.160;2022-07-01T06:46:31;6.93;;;3.10;;
11921;SDS011;6021;51.182;3.160;2022-07-01T06:49:10;7.47;;;3.20;;
11921;SDS011;6021;51.182;3.160;2022-07-01T06:51:50;6.00;;;2.90;;
11921;SDS011;6021;51.182;3.160;2022-07-01T06:54:20;7.30;;;2.83;;
11921;SDS011;6021;51.182;3.160;2022-07-01T06:56:51;7.73;;;2.97;;
11921;SDS011;6021;51.182;3.160;2022-07-01T06:59:19;3.90;;;2.83;;
11921;SDS011;6021;51.182;3.160;2022-07-01T07:01:49;4.73;;;2.73;;
11921;SDS011;6021;51.182;3.160;2022-07-01T07:04:21;8.23;;;3.00;;
11921;SDS011;6021;51.182;3.160;2022-07-01T07:06:51;8.40;;;2.97;;
11921;SDS011;6021;51.182;3.160;2022-07-01T07:09:19;5.63;;;2.80;;
11921;SDS011;6021;51.182;3.160;2022-07-01T07:11:50;7.20;;;3.10;;
11921;SDS011;6021;51.182;3.160;2022-07-01T07:14:18;5.43;;;2.97;;
11921;SDS011;6021;51.182;3.160;2022-07-01T07:16:49;5.73;;;2.90;;
11921;SDS011;6021;51.182;3.160;2022-07-01T07:19:22;6.97;;;2.90;;
11921;SDS011;6021;51.182;3.160;2022-07-01T07:21:50;7.00;;;2.40;;
11921;SDS011;6021;51.182;3.160;2022-07-01T07:24:19;6.60;;;2.80;;
11921;SDS011;6021;51.182;3.160;2022-07-01T07:26:47;7.23;;;2.50;;
11921;SDS011;6021;51.182;3.160;2022-07-01T07:29:15;6.57;;;2.50;;
11921;SDS011;6021;51.182;3.160;2022-07-01T07:31:45;6.97;;;2.80;;
11921;SDS011;6021;51.182;3.160;2022-07-01T07:34:13;4.40;;;2.30;;
11921;SDS011;6021;51.182;3.160;2022-07-01T07:36:44;6.30;;;2.40;;
11921;SDS011;6021;51.182;3.160;2022-07-01T07:39:14;5.53;;;2.00;;
11921;SDS011;6021;51.182;3.160;2022-07-01T07:41:44;6.67;;;2.00;;
11921;SDS011;6021;51.182;3.160;2022-07-01T07:44:12;6.80;;;2.40;;
11921;SDS011;6021;51.182;3.160;2022-07-01T07:46:42;4.60;;;2.10;;
11921;SDS011;6021;51.182;3.160;2022-07-01T07:49:11;5.87;;;2.27;;
11921;SDS011;6021;51.182;3.160;2022-07-01T07:51:40;5.13;;;1.67;;
11921;SDS011;6021;51.182;3.160;2022-07-01T07:54:08;3.70;;;1.50;;
11921;SDS011;6021;51.182;3.160;2022-07-01T07:56:37;3.07;;;1.83;;
11921;SDS011;6021;51.182;3.160;2022-07-01T07:59:09;3.70;;;1.80;;
11921;SDS011;6021;51.182;3.160;2022-07-01T08:01:37;5.23;;;2.00;;
11921;SDS011;6021;51.182;3.160;2022-07-01T08:04:08;6.13;;;1.90;;
11921;SDS011;6021;51.182;3.160;2022-07-01T08:06:38;4.03;;;1.93;;
11921;SDS011;6021;51.182;3.160;2022-07-01T08:09:07;5.10;;;1.83;;
11921;SDS011;6021;51.182;3.160;2022-07-01T08:11:36;4.77;;;2.00;;
11921;SDS011;6021;51.182;3.160;2022-07-01T08:14:04;3.60;;;1.80;;
11921;SDS011;6021;51.182;3.160;2022-07-01T08:16:33;5.17;;;1.70;;
11921;SDS011;6021;51.182;3.160;2022-07-01T08:19:02;4.23;;;2.13;;
11921;SDS011;6021;51.182;3.160;2022-07-01T08:21:30;4.73;;;1.90;;
11921;SDS011;6021;51.182;3.160;2022-07-01T08:24:02;4.67;;;1.97;;
11921;SDS011;6021;51.182;3.160;2022-07-01T08:26:30;6.83;;;1.90;;
11921;SDS011;6021;51.182;3.160;2022-07-01T08:29:01;7.30;;;2.17;;
11921;SDS011;6021;51.182;3.160;2022-07-01T08:31:31;5.47;;;1.60;;
11921;SDS011;6021;51.182;3.160;2022-07-01T08:34:03;5.77;;;1.60;;
11921;SDS011;6021;51.182;3.160;2022-07-01T08:36:34;3.80;;;1.70;;
11921;SDS011;6021;51.182;3.160;2022-07-01T08:39:03;5.00;;;1.83;;
11921;SDS011;6021;51.182;3.160;2022-07-01T08:41:33;4.67;;;1.70;;
11921;SDS011;6021;51.182;3.160;2022-07-01T08:44:04;3.80;;;1.50;;
11921;SDS011;6021;51.182;3.160;2022-07-01T08:46:35;3.77;;;1.80;;
11921;SDS011;6021;51.182;3.160;2022-07-01T08:49:12;4.00;;;1.60;;
11921;SDS011;6021;51.182;3.160;2022-07-01T08:51:51;4.13;;;1.67;;
11921;SDS011;6021;51.182;3.160;2022-07-01T08:54:29;5.47;;;1.90;;
11921;SDS011;6021;51.182;3.160;2022-07-01T08:57:05;4.10;;;1.70;;
11921;SDS011;6021;51.182;3.160;2022-07-01T08:59:39;4.00;;;1.60;;
11921;SDS011;6021;51.182;3.160;2022-07-01T09:02:13;4.37;;;1.70;;
11921;SDS011;6021;51.182;3.160;2022-07-01T09:04:41;3.67;;;1.60;;
11921;SDS011;6021;51.182;3.160;2022-07-01T09:07:18;6.00;;;1.60;;
11921;SDS011;6021;51.182;3.160;2022-07-01T09:09:47;4.47;;;1.80;;
11921;SDS011;6021;51.182;3.160;2022-07-01T09:12:15;6.57;;;1.70;;
11921;SDS011;6021;51.182;3.160;2022-07-01T09:14:45;4.23;;;1.60;;
11921;SDS011;6021;51.182;3.160;2022-07-01T09:17:17;6.53;;;1.73;;
11921;SDS011;6021;51.182;3.160;2022-07-01T09:19:54;6.33;;;1.70;;
11921;SDS011;6021;51.182;3.160;2022-07-01T09:22:25;5.10;;;1.60;;
11921;SDS011;6021;51.182;3.160;2022-07-01T09:25:01;4.07;;;1.60;;
11921;SDS011;6021;51.182;3.160;2022-07-01T09:27:39;5.47;;;1.80;;
11921;SDS011;6021;51.182;3.160;2022-07-01T09:30:11;3.07;;;1.60;;
11921;SDS011;6021;51.182;3.160;2022-07-01T09:32:41;5.57;;;1.70;;
11921;SDS011;6021;51.182;3.160;2022-07-01T09:35:22;4.53;;;1.53;;
11921;SDS011;6021;51.182;3.160;2022-07-01T09:38:13;4.50;;;1.57;;
11921;SDS011;6021;51.182;3.160;2022-07-01T09:43:27;4.03;;;1.60;;
11921;SDS011;6021;51.182;3.160;2022-07-01T09:45:58;6.67;;;1.70;;
11921;SDS011;6021;51.182;3.160;2022-07-01T09:51:03;6.87;;;1.90;;
11921;SDS011;6021;51.182;3.160;2022-07-01T09:53:37;3.23;;;1.57;;
11921;SDS011;6021;51.182;3.160;2022-07-01T09:56:12;4.17;;;1.60;;
11921;SDS011;6021;51.182;3.160;2022-07-01T09:58:41;5.27;;;1.60;;
11921;SDS011;6021;51.182;3.160;2022-07-01T10:01:12;4.60;;;1.60;;
11921;SDS011;6021;51.182;3.160;2022-07-01T10:03:44;4.17;;;1.67;;
11921;SDS011;6021;51.182;3.160;2022-07-01T10:06:31;3.77;;;1.60;;
11921;SDS011;6021;51.182;3.160;2022-07-01T10:09:05;4.33;;;1.60;;
11921;SDS011;6021;51.182;3.160;2022-07-01T10:14:51;3.90;;;1.63;;
11921;SDS011;6021;51.182;3.160;2022-07-01T10:17:27;4.30;;;1.60;;
11921;SDS011;6021;51.182;3.160;2022-07-01T10:20:09;2.83;;;1.30;;
11921;SDS011;6021;51.182;3.160;2022-07-01T10:22:39;3.90;;;1.43;;
11921;SDS011;6021;51.182;3.160;2022-07-01T10:36:39;3.73;;;1.70;;
11921;SDS011;6021;51.182;3.160;2022-07-01T10:39:16;4.60;;;2.07;;
11921;SDS011;6021;51.182;3.160;2022-07-01T10:42:02;6.93;;;2.13;;
11921;SDS011;6021;51.182;3.160;2022-07-01T10:44:27;4.83;;;2.10;;
11921;SDS011;6021;51.182;3.160;2022-07-01T10:47:02;5.30;;;2.30;;
11921;SDS011;6021;51.182;3.160;2022-07-01T10:52:12;5.10;;;2.00;;
11921;SDS011;6021;51.182;3.160;2022-07-01T10:57:19;4.83;;;2.00;;
11921;SDS011;6021;51.182;3.160;2022-07-01T11:02:35;5.73;;;2.20;;
11921;SDS011;6021;51.182;3.160;2022-07-01T11:05:11;5.00;;;2.30;;
11921;SDS011;6021;51.182;3.160;2022-07-01T11:07:49;5.67;;;2.10;;
11921;SDS011;6021;51.182;3.160;2022-07-01T11:10:19;3.77;;;2.00;;
11921;SDS011;6021;51.182;3.160;2022-07-01T11:12:50;8.43;;;2.10;;
11921;SDS011;6021;51.182;3.160;2022-07-01T11:15:19;5.80;;;2.10;;
11921;SDS011;6021;51.182;3.160;2022-07-01T11:17:49;5.03;;;2.20;;
11921;SDS011;6021;51.182;3.160;2022-07-01T11:20:25;5.67;;;2.40;;
11921;SDS011;6021;51.182;3.160;2022-07-01T11:23:00;7.03;;;2.17;;
11921;SDS011;6021;51.182;3.160;2022-07-01T11:25:31;4.83;;;2.00;;
11921;SDS011;6021;51.182;3.160;2022-07-01T11:28:16;5.63;;;2.20;;
11921;SDS011;6021;51.182;3.160;2022-07-01T11:31:00;5.70;;;2.40;;
11921;SDS011;6021;51.182;3.160;2022-07-01T11:33:42;7.10;;;2.60;;
11921;SDS011;6021;51.182;3.160;2022-07-01T11:36:20;6.27;;;2.20;;
11921;SDS011;6021;51.182;3.160;2022-07-01T11:39:08;4.97;;;2.17;;
11921;SDS011;6021;51.182;3.160;2022-07-01T11:41:59;6.17;;;2.03;;
11921;SDS011;6021;51.182;3.160;2022-07-01T11:44:34;7.07;;;2.20;;
11921;SDS011;6021;51.182;3.160;2022-07-01T11:47:22;4.43;;;2.00;;
11921;SDS011;6021;51.182;3.160;2022-07-01T11:49:53;6.50;;;2.50;;
11921;SDS011;6021;51.182;3.160;2022-07-01T11:52:44;5.20;;;2.23;;
11921;SDS011;6021;51.182;3.160;2022-07-01T11:55:18;8.73;;;2.30;;
11921;SDS011;6021;51.182;3.160;2022-07-01T11:57:53;8.50;;;2.50;;
11921;SDS011;6021;51.182;3.160;2022-07-01T12:00:25;5.47;;;2.13;;
11921;SDS011;6021;51.182;3.160;2022-07-01T12:02:56;5.13;;;2.20;;
11921;SDS011;6021;51.182;3.160;2022-07-01T12:05:27;5.33;;;2.30;;
11921;SDS011;6021;51.182;3.160;2022-07-01T12:07:56;5.83;;;2.40;;
11921;SDS011;6021;51.182;3.160;2022-07-01T12:10:25;5.90;;;2.07;;
11921;SDS011;6021;51.182;3.160;2022-07-01T12:13:00;7.73;;;2.53;;
11921;SDS011;6021;51.182;3.160;2022-07-01T12:15:37;5.77;;;2.37;;
11921;SDS011;6021;51.182;3.160;2022-07-01T12:18:08;5.43;;;2.13;;
11921;SDS011;6021;51.182;3.160;2022-07-01T12:20:50;5.60;;;2.40;;
11921;SDS011;6021;51.182;3.160;2022-07-01T12:23:42;5.27;;;2.20;;
11921;SDS011;6021;51.182;3.160;2022-07-01T12:26:20;4.40;;;2.20;;
11921;SDS011;6021;51.182;3.160;2022-07-01T12:28:53;8.33;;;2.67;;
11921;SDS011;6021;51.182;3.160;2022-07-01T12:31:22;6.43;;;2.43;;
11921;SDS011;6021;51.182;3.160;2022-07-01T12:33:52;6.33;;;2.50;;
11921;SDS011;6021;51.182;3.160;2022-07-01T12:36:21;3.70;;;2.10;;
11921;SDS011;6021;51.182;3.160;2022-07-01T12:39:11;4.73;;;2.63;;
11921;SDS011;6021;51.182;3.160;2022-07-01T12:41:33;7.73;;;2.77;;
11921;SDS011;6021;51.182;3.160;2022-07-01T12:44:05;8.53;;;2.67;;
11921;SDS011;6021;51.182;3.160;2022-07-01T12:46:38;3.63;;;2.40;;
11921;SDS011;6021;51.182;3.160;2022-07-01T12:49:08;6.37;;;2.40;;
11921;SDS011;6021;51.182;3.160;2022-07-01T12:51:41;6.60;;;2.73;;
11921;SDS011;6021;51.182;3.160;2022-07-01T12:54:27;7.23;;;2.80;;
11921;SDS011;6021;51.182;3.160;2022-07-01T12:56:58;6.90;;;2.37;;
11921;SDS011;6021;51.182;3.160;2022-07-01T12:59:34;5.93;;;2.53;;
11921;SDS011;6021;51.182;3.160;2022-07-01T13:02:05;6.23;;;2.20;;
11921;SDS011;6021;51.182;3.160;2022-07-01T13:04:42;7.77;;;2.50;;
11921;SDS011;6021;51.182;3.160;2022-07-01T13:07:13;6.30;;;2.53;;
11921;SDS011;6021;51.182;3.160;2022-07-01T13:09:47;5.50;;;2.53;;
11921;SDS011;6021;51.182;3.160;2022-07-01T13:12:24;4.57;;;2.10;;
11921;SDS011;6021;51.182;3.160;2022-07-01T13:14:52;5.53;;;2.10;;
11921;SDS011;6021;51.182;3.160;2022-07-01T13:17:21;3.93;;;2.00;;
11921;SDS011;6021;51.182;3.160;2022-07-01T13:19:59;4.03;;;2.00;;
11921;SDS011;6021;51.182;3.160;2022-07-01T13:22:36;4.43;;;1.77;;
11921;SDS011;6021;51.182;3.160;2022-07-01T13:25:11;4.27;;;2.27;;
11921;SDS011;6021;51.182;3.160;2022-07-01T13:27:44;3.73;;;1.90;;
11921;SDS011;6021;51.182;3.160;2022-07-01T13:30:15;5.23;;;1.97;;
11921;SDS011;6021;51.182;3.160;2022-07-01T13:32:46;3.50;;;1.80;;
11921;SDS011;6021;51.182;3.160;2022-07-01T13:35:19;3.63;;;1.80;;
11921;SDS011;6021;51.182;3.160;2022-07-01T13:37:49;5.03;;;1.80;;
11921;SDS011;6021;51.182;3.160;2022-07-01T13:40:21;4.47;;;1.60;;
11921;SDS011;6021;51.182;3.160;2022-07-01T13:42:59;5.93;;;1.83;;
11921;SDS011;6021;51.182;3.160;2022-07-01T13:45:34;4.50;;;1.50;;
11921;SDS011;6021;51.182;3.160;2022-07-01T13:48:06;2.70;;;1.50;;
11921;SDS011;6021;51.182;3.160;2022-07-01T13:50:35;3.60;;;1.03;;
11921;SDS011;6021;51.182;3.160;2022-07-01T13:53:16;3.23;;;1.23;;
11921;SDS011;6021;51.182;3.160;2022-07-01T13:55:52;2.67;;;1.10;;
11921;SDS011;6021;51.182;3.160;2022-07-01T13:58:24;2.63;;;1.10;;
11921;SDS011;6021;51.182;3.160;2022-07-01T14:01:05;2.70;;;1.20;;
11921;SDS011;6021;51.182;3.160;2022-07-01T14:03:37;3.60;;;1.20;;
11921;SDS011;6021;51.182;3.160;2022-07-01T14:06:06;1.60;;;1.03;;
11921;SDS011;6021;51.182;3.160;2022-07-01T14:08:37;3.40;;;1.30;;
11921;SDS011;6021;51.182;3.160;2022-07-01T14:11:14;2.17;;;1.00;;
11921;SDS011;6021;51.182;3.160;2022-07-01T14:13:47;3.13;;;1.20;;
11921;SDS011;6021;51.182;3.160;2022-07-01T14:16:24;2.83;;;1.10;;
11921;SDS011;6021;51.182;3.160;2022-07-01T14:19:01;3.17;;;1.20;;
11921;SDS011;6021;51.182;3.160;2022-07-01T14:21:36;2.87;;;1.10;;
11921;SDS011;6021;51.182;3.160;2022-07-01T14:24:27;3.23;;;1.13;;
11921;SDS011;6021;51.182;3.160;2022-07-01T14:27:06;2.43;;;0.97;;
11921;SDS011;6021;51.182;3.160;2022-07-01T14:29:38;1.73;;;1.10;;
11921;SDS011;6021;51.182;3.160;2022-07-01T14:32:07;1.37;;;0.90;;
11921;SDS011;6021;51.182;3.160;2022-07-01T14:34:36;3.87;;;1.13;;
11921;SDS011;6021;51.182;3.160;2022-07-01T14:37:06;2.50;;;1.17;;
11921;SDS011;6021;51.182;3.160;2022-07-01T14:39:41;3.40;;;1.00;;
11921;SDS011;6021;51.182;3.160;2022-07-01T14:42:37;3.30;;;1.20;;
11921;SDS011;6021;51.182;3.160;2022-07-01T14:45:13;2.60;;;1.07;;
11921;SDS011;6021;51.182;3.160;2022-07-01T14:47:46;2.60;;;1.13;;
11921;SDS011;6021;51.182;3.160;2022-07-01T14:50:27;4.07;;;1.20;;
11921;SDS011;6021;51.182;3.160;2022-07-01T14:53:02;1.60;;;0.90;;
11921;SDS011;6021;51.182;3.160;2022-07-01T14:55:32;3.60;;;1.03;;
11921;SDS011;6021;51.182;3.160;2022-07-01T14:58:00;1.97;;;1.07;;
11921;SDS011;6021;51.182;3.160;2022-07-01T15:00:40;1.87;;;0.90;;
11921;SDS011;6021;51.182;3.160;2022-07-01T15:03:12;4.97;;;1.10;;
11921;SDS011;6021;51.182;3.160;2022-07-01T15:05:48;1.67;;;0.90;;
11921;SDS011;6021;51.182;3.160;2022-07-01T15:08:17;3.77;;;0.90;;
11921;SDS011;6021;51.182;3.160;2022-07-01T15:10:47;1.77;;;0.97;;
11921;SDS011;6021;51.182;3.160;2022-07-01T15:13:17;2.40;;;1.10;;
11921;SDS011;6021;51.182;3.160;2022-07-01T15:15:45;1.73;;;0.87;;
11921;SDS011;6021;51.182;3.160;2022-07-01T15:18:15;1.77;;;0.80;;
11921;SDS011;6021;51.182;3.160;2022-07-01T15:20:47;3.10;;;0.90;;
11921;SDS011;6021;51.182;3.160;2022-07-01T15:23:17;1.83;;;0.90;;
11921;SDS011;6021;51.182;3.160;2022-07-01T15:25:49;3.10;;;1.00;;
11921;SDS011;6021;51.182;3.160;2022-07-01T15:28:20;3.67;;;1.10;;
11921;SDS011;6021;51.182;3.160;2022-07-01T15:30:50;1.47;;;1.00;;
11921;SDS011;6021;51.182;3.160;2022-07-01T15:33:25;3.57;;;1.00;;
11921;SDS011;6021;51.182;3.160;2022-07-01T15:35:55;1.93;;;1.00;;
11921;SDS011;6021;51.182;3.160;2022-07-01T15:38:25;1.70;;;0.90;;
11921;SDS011;6021;51.182;3.160;2022-07-01T15:40:54;1.77;;;0.87;;
11921;SDS011;6021;51.182;3.160;2022-07-01T15:43:22;2.27;;;1.00;;
11921;SDS011;6021;51.182;3.160;2022-07-01T15:45:52;1.43;;;0.90;;
11921;SDS011;6021;51.182;3.160;2022-07-01T15:48:20;1.20;;;0.80;;
11921;SDS011;6021;51.182;3.160;2022-07-01T15:50:54;2.40;;;1.00;;
11921;SDS011;6021;51.182;3.160;2022-07-01T15:53:22;1.50;;;0.87;;
11921;SDS011;6021;51.182;3.160;2022-07-01T15:55:53;0.80;;;0.80;;
11921;SDS011;6021;51.182;3.160;2022-07-01T15:58:26;1.87;;;0.90;;
11921;SDS011;6021;51.182;3.160;2022-07-01T16:00:56;1.67;;;1.00;;
11921;SDS011;6021;51.182;3.160;2022-07-01T16:03:26;2.37;;;0.90;;
11921;SDS011;6021;51.182;3.160;2022-07-01T16:06:02;1.50;;;1.00;;
11921;SDS011;6021;51.182;3.160;2022-07-01T16:08:35;2.47;;;1.20;;
11921;SDS011;6021;51.182;3.160;2022-07-01T16:11:10;2.30;;;1.07;;
11921;SDS011;6021;51.182;3.160;2022-07-01T16:13:49;8.10;;;1.10;;
11921;SDS011;6021;51.182;3.160;2022-07-01T16:16:22;2.53;;;0.97;;
11921;SDS011;6021;51.182;3.160;2022-07-01T16:18:54;2.60;;;0.90;;
11921;SDS011;6021;51.182;3.160;2022-07-01T16:21:34;3.00;;;1.03;;
11921;SDS011;6021;51.182;3.160;2022-07-01T16:24:13;3.47;;;0.97;;
11921;SDS011;6021;51.182;3.160;2022-07-01T16:26:47;2.27;;;0.93;;
11921;SDS011;6021;51.182;3.160;2022-07-01T16:29:17;3.43;;;0.90;;
11921;SDS011;6021;51.182;3.160;2022-07-01T16:31:48;1.87;;;1.00;;
11921;SDS011;6021;51.182;3.160;2022-07-01T16:34:24;2.80;;;1.07;;